createdAt,value
2019-05-13T00:00:18.935Z,7.57
2019-05-13T00:02:43.820Z,2.47
2019-05-13T00:05:07.807Z,6.97
2019-05-13T00:07:31.254Z,3.53
2019-05-13T00:09:54.665Z,4.33
2019-05-13T00:12:18.123Z,5.30
2019-05-13T00:14:43.402Z,2.83
2019-05-13T00:17:06.732Z,5.07
2019-05-13T00:19:30.147Z,2.43
2019-05-13T00:21:54.604Z,6.80
2019-05-13T00:24:18.089Z,3.10
2019-05-13T00:26:43.805Z,2.87
2019-05-13T00:29:06.860Z,3.50
2019-05-13T00:31:30.274Z,2.60
2019-05-13T00:33:53.723Z,4.13
2019-05-13T00:36:17.450Z,4.90
2019-05-13T00:38:40.856Z,3.90
2019-05-13T00:41:04.308Z,2.73
2019-05-13T00:43:27.773Z,2.63
2019-05-13T00:45:52.869Z,4.30
2019-05-13T00:48:16.319Z,3.70
2019-05-13T00:50:39.775Z,3.80
2019-05-13T00:53:04.410Z,3.83
2019-05-13T00:55:28.061Z,3.60
2019-05-13T00:57:53.967Z,4.00
2019-05-13T01:00:17.303Z,3.47
2019-05-13T01:02:40.718Z,3.40
2019-05-13T01:05:06.421Z,4.95
2019-05-13T01:07:29.835Z,3.90
2019-05-13T01:09:53.538Z,3.50
2019-05-13T01:12:16.982Z,2.67
2019-05-13T01:14:40.453Z,4.50
2019-05-13T01:17:04.194Z,3.07
2019-05-13T01:19:27.750Z,3.23
2019-05-13T01:21:51.204Z,3.20
2019-05-13T01:24:14.747Z,3.03
2019-05-13T01:26:38.153Z,7.33
2019-05-13T01:29:03.980Z,2.63
2019-05-13T01:31:26.773Z,3.77
2019-05-13T01:33:50.494Z,3.30
2019-05-13T01:36:13.958Z,4.90
2019-05-13T01:38:37.373Z,4.83
2019-05-13T01:41:01.133Z,5.03
2019-05-13T01:43:24.738Z,4.03
2019-05-13T01:45:48.132Z,5.73
2019-05-13T01:48:13.883Z,5.23
2019-05-13T01:50:37.094Z,3.30
2019-05-13T01:53:00.553Z,2.93
2019-05-13T01:55:24.448Z,1.90
2019-05-13T01:57:47.953Z,3.40
2019-05-13T02:00:13.750Z,2.63
2019-05-13T02:02:36.618Z,2.43
2019-05-13T02:05:00.027Z,4.07
2019-05-13T02:07:24.408Z,2.70
2019-05-13T02:09:47.968Z,3.43
2019-05-13T02:12:13.335Z,4.57
2019-05-13T02:14:36.604Z,4.77
2019-05-13T02:17:00.014Z,4.30
2019-05-13T02:19:24.562Z,3.43
2019-05-13T02:21:48.102Z,2.73
2019-05-13T02:24:11.557Z,3.33
2019-05-13T02:26:35.018Z,3.80
2019-05-13T02:28:58.423Z,4.30
2019-05-13T02:31:31.931Z,3.10
2019-05-13T02:33:47.038Z,2.10
2019-05-13T02:36:13.248Z,2.77
2019-05-13T02:38:36.038Z,3.83
2019-05-13T02:41:02.571Z,2.63
2019-05-13T02:43:24.943Z,2.30
2019-05-13T02:45:48.724Z,3.13
2019-05-13T02:48:12.770Z,7.57
2019-05-13T02:50:36.274Z,3.77
2019-05-13T02:53:02.397Z,6.13
2019-05-13T02:55:24.875Z,2.75
2019-05-13T02:57:48.332Z,3.20
2019-05-13T03:00:13.360Z,4.07
2019-05-13T03:02:36.990Z,2.23
2019-05-13T03:05:03.293Z,2.47
2019-05-13T03:07:25.570Z,3.57
2019-05-13T03:09:52.509Z,4.43
2019-05-13T03:12:14.273Z,2.27
2019-05-13T03:14:37.743Z,1.83
2019-05-13T03:17:03.543Z,4.70
2019-05-13T03:19:27.149Z,3.47
2019-05-13T03:21:52.507Z,3.53
2019-05-13T03:24:15.780Z,4.07
2019-05-13T03:26:42.538Z,4.87
2019-05-13T03:29:04.375Z,5.53
2019-05-13T03:31:27.800Z,6.70
2019-05-13T03:33:55.982Z,3.57
2019-05-13T03:36:17.900Z,3.60
2019-05-13T03:38:59.859Z,4.93
2019-05-13T03:41:12.143Z,4.43
2019-05-13T03:43:38.264Z,2.60
2019-05-13T03:46:04.021Z,2.83
2019-05-13T03:48:27.437Z,4.90
2019-05-13T03:50:53.301Z,2.83
2019-05-13T03:53:16.821Z,5.47
2019-05-13T03:55:43.386Z,4.17
2019-05-13T03:58:06.097Z,4.77
2019-05-13T04:00:32.244Z,8.47
2019-05-13T04:02:54.762Z,3.43
2019-05-13T04:05:18.225Z,5.30
2019-05-13T04:07:43.434Z,3.80
2019-05-13T04:10:07.518Z,6.93
2019-05-13T04:12:33.340Z,3.63
2019-05-13T04:14:56.198Z,4.17
2019-05-13T04:17:19.618Z,4.57
2019-05-13T04:19:43.064Z,4.50
2019-05-13T04:22:06.476Z,2.60
2019-05-13T04:24:33.290Z,7.83
2019-05-13T04:26:56.493Z,3.80
2019-05-13T04:29:23.136Z,5.00
2019-05-13T04:31:45.074Z,5.20
2019-05-13T04:34:12.114Z,4.80
2019-05-13T04:36:33.940Z,5.10
2019-05-13T04:38:57.795Z,10.67
2019-05-13T04:41:22.983Z,7.17
2019-05-13T04:43:46.465Z,11.00
2019-05-13T04:46:13.580Z,7.63
2019-05-13T04:48:39.294Z,9.87
2019-05-13T04:51:02.996Z,6.20
2019-05-13T04:53:25.400Z,5.97
2019-05-13T04:55:48.886Z,6.13
2019-05-13T04:58:13.151Z,5.83
2019-05-13T05:00:54.138Z,5.10
2019-05-13T05:03:35.157Z,5.83
2019-05-13T05:06:02.994Z,4.37
2019-05-13T05:08:37.386Z,5.10
2019-05-13T05:11:36.023Z,6.00
2019-05-13T05:14:22.450Z,6.27
2019-05-13T05:16:49.031Z,10.30
2019-05-13T05:19:32.156Z,11.20
2019-05-13T05:21:58.818Z,12.33
2019-05-13T05:24:27.965Z,11.37
2019-05-13T05:26:57.521Z,9.17
2019-05-13T05:29:32.037Z,8.30
2019-05-13T05:32:09.420Z,8.67
2019-05-13T05:34:42.019Z,15.33
2019-05-13T05:37:22.345Z,9.43
2019-05-13T05:39:47.213Z,13.37
2019-05-13T05:42:13.721Z,6.90
2019-05-13T05:44:38.539Z,10.37
2019-05-13T05:47:03.249Z,9.23
2019-05-13T05:49:27.312Z,7.37
2019-05-13T05:51:53.551Z,9.13
2019-05-13T05:54:21.646Z,10.03
2019-05-13T05:56:47.367Z,12.47
2019-05-13T05:59:12.521Z,10.07
2019-05-13T06:01:37.427Z,11.07
2019-05-13T06:04:01.626Z,12.77
2019-05-13T06:06:25.087Z,13.17
2019-05-13T06:08:48.535Z,11.13
2019-05-13T06:11:12.693Z,8.83
2019-05-13T06:13:39.083Z,6.77
2019-05-13T06:16:02.511Z,15.17
2019-05-13T06:18:25.971Z,13.17
2019-05-13T06:20:51.210Z,16.17
2019-05-13T06:23:14.559Z,15.40
2019-05-13T06:25:37.983Z,13.95
2019-05-13T06:28:01.886Z,15.67
2019-05-13T06:30:25.630Z,16.47
2019-05-13T06:32:49.083Z,8.33
2019-05-13T06:35:12.570Z,9.70
2019-05-13T06:37:36.325Z,12.23
2019-05-13T06:40:02.061Z,9.77
2019-05-13T06:42:25.628Z,9.80
2019-05-13T06:44:51.224Z,10.07
2019-05-13T06:47:14.223Z,15.00
2019-05-13T06:49:37.653Z,15.30
2019-05-13T06:52:01.712Z,12.93
2019-05-13T06:54:25.410Z,14.30
2019-05-13T06:56:51.579Z,10.60
2019-05-13T06:59:14.020Z,10.83
2019-05-13T07:01:37.480Z,8.37
2019-05-13T07:04:02.393Z,9.90
2019-05-13T07:06:27.487Z,15.43
2019-05-13T07:08:52.105Z,12.87
2019-05-13T07:11:21.094Z,16.13
2019-05-13T07:13:42.251Z,11.00
2019-05-13T07:16:05.746Z,11.03
2019-05-13T07:18:29.288Z,9.20
2019-05-13T07:20:53.192Z,9.03
2019-05-13T07:23:16.639Z,12.50
2019-05-13T07:25:42.059Z,9.20
2019-05-13T07:28:05.405Z,9.83
2019-05-13T07:30:42.405Z,13.30
2019-05-13T07:33:05.782Z,9.27
2019-05-13T07:35:32.272Z,9.23
2019-05-13T07:37:54.382Z,16.63
2019-05-13T07:40:18.119Z,12.20
2019-05-13T07:42:42.042Z,8.03
2019-05-13T07:45:06.743Z,9.67
2019-05-13T07:47:31.451Z,9.77
2019-05-13T07:49:54.973Z,11.00
2019-05-13T07:52:18.398Z,9.60
2019-05-13T07:54:42.172Z,10.10
2019-05-13T07:57:05.732Z,9.27
2019-05-13T07:59:31.521Z,10.53
2019-05-13T08:01:54.636Z,10.57
2019-05-13T08:04:22.674Z,11.70
2019-05-13T08:06:43.224Z,10.23
2019-05-13T08:09:08.608Z,8.43
2019-05-13T08:11:35.377Z,8.70
2019-05-13T08:13:57.271Z,5.87
2019-05-13T08:18:36.952Z,11.87
2019-05-13T08:21:02.109Z,7.37
2019-05-13T08:23:25.524Z,8.20
2019-05-13T08:25:51.335Z,11.10
2019-05-13T08:28:14.197Z,5.90
2019-05-13T08:30:37.655Z,7.13
2019-05-13T08:33:01.717Z,10.73
2019-05-13T08:35:25.521Z,6.57
2019-05-13T08:37:48.946Z,4.10
2019-05-13T08:40:12.657Z,7.00
2019-05-13T08:42:36.433Z,5.63
2019-05-13T08:45:01.886Z,5.47
2019-05-13T08:47:25.020Z,4.33
2019-05-13T08:49:48.492Z,5.60
2019-05-13T08:52:12.295Z,5.50
2019-05-13T08:54:35.753Z,6.00
2019-05-13T08:56:59.216Z,4.40
2019-05-13T08:59:22.719Z,7.53
2019-05-13T09:01:46.173Z,6.13
2019-05-13T09:04:11.821Z,7.07
2019-05-13T09:06:35.199Z,4.80
2019-05-13T09:08:58.663Z,4.07
2019-05-13T09:11:22.278Z,5.97
2019-05-13T09:13:45.671Z,6.00
2019-05-13T09:16:09.196Z,6.47
2019-05-13T09:18:32.619Z,8.40
2019-05-13T09:20:56.144Z,8.37
2019-05-13T09:23:22.048Z,4.87
2019-05-13T09:25:44.829Z,5.23
2019-05-13T09:28:08.253Z,6.97
2019-05-13T09:30:32.032Z,3.43
2019-05-13T09:32:55.487Z,5.40
2019-05-13T09:35:18.902Z,6.33
2019-05-13T09:37:42.509Z,3.00
2019-05-13T09:40:06.314Z,4.07
2019-05-13T09:42:47.096Z,4.13
2019-05-13T09:44:54.928Z,8.13
2019-05-13T09:47:18.410Z,3.27
2019-05-13T09:49:42.199Z,4.83
2019-05-13T09:52:05.666Z,4.33
2019-05-13T09:54:32.435Z,2.63
2019-05-13T09:56:54.281Z,4.23
2019-05-13T09:59:17.707Z,3.43
2019-05-13T10:01:42.527Z,3.53
2019-05-13T10:04:06.617Z,4.83
2019-05-13T10:06:32.610Z,5.75
2019-05-13T10:08:55.310Z,6.00
2019-05-13T10:11:18.738Z,3.67
2019-05-13T10:13:42.233Z,4.47
2019-05-13T10:16:05.664Z,3.87
2019-05-13T10:18:29.379Z,6.53
2019-05-13T10:20:59.195Z,4.33
2019-05-13T10:23:23.638Z,5.27
2019-05-13T10:25:52.174Z,4.43
2019-05-13T10:28:21.887Z,4.57
2019-05-13T10:30:46.091Z,5.40
2019-05-13T10:33:11.971Z,5.90
2019-05-13T10:35:36.050Z,2.67
2019-05-13T10:37:59.474Z,4.07
2019-05-13T10:40:23.278Z,4.10
2019-05-13T10:42:46.782Z,2.80
2019-05-13T10:45:12.929Z,6.67
2019-05-13T10:47:35.533Z,4.30
2019-05-13T10:49:58.949Z,3.57
2019-05-13T10:52:23.080Z,3.97
2019-05-13T10:54:46.571Z,5.60
2019-05-13T10:57:13.369Z,2.13
2019-05-13T10:59:35.174Z,5.13
2019-05-13T11:01:59.346Z,6.83
2019-05-13T11:04:24.099Z,5.23
2019-05-13T11:06:47.583Z,2.93
2019-05-13T11:09:12.963Z,2.73
2019-05-13T11:11:37.005Z,2.53
2019-05-13T11:14:10.652Z,3.23
2019-05-13T11:16:25.945Z,3.83
2019-05-13T11:18:51.914Z,2.60
2019-05-13T11:21:15.572Z,2.97
2019-05-13T11:23:39.455Z,4.40
2019-05-13T11:26:03.389Z,2.63
2019-05-13T11:28:27.186Z,3.33
2019-05-13T11:30:51.965Z,3.03
2019-05-13T11:33:15.811Z,5.00
2019-05-13T11:35:41.467Z,2.87
2019-05-13T11:38:04.655Z,2.10
2019-05-13T11:40:28.110Z,4.50
2019-05-13T11:42:52.653Z,4.33
2019-05-13T11:45:16.832Z,3.57
2019-05-13T11:47:41.537Z,4.00
2019-05-13T11:50:06.809Z,4.47
2019-05-13T11:52:31.567Z,3.25
2019-05-13T11:54:55.280Z,3.58
2019-05-13T11:57:18.771Z,3.90
2019-05-13T11:59:43.257Z,3.90
2019-05-13T12:02:06.900Z,3.65
2019-05-13T12:04:33.132Z,4.62
2019-05-13T12:06:55.419Z,3.60
2019-05-13T12:09:21.968Z,3.35
2019-05-13T12:11:44.307Z,3.27
2019-05-13T12:14:07.737Z,2.92
2019-05-13T12:16:34.970Z,4.97
2019-05-13T12:18:56.897Z,4.78
2019-05-13T12:21:20.449Z,3.75
2019-05-13T12:23:44.242Z,3.37
2019-05-13T12:26:07.842Z,4.23
2019-05-13T12:28:31.306Z,4.62
2019-05-13T12:30:55.153Z,3.30
2019-05-13T12:33:18.576Z,6.00
2019-05-13T12:35:42.039Z,3.95
2019-05-13T12:38:05.451Z,4.30
2019-05-13T12:40:33.434Z,2.93
2019-05-13T12:42:54.161Z,2.72
2019-05-13T12:45:17.632Z,2.17
2019-05-13T12:47:43.388Z,3.85
2019-05-13T12:50:07.921Z,5.47
2019-05-13T12:52:32.614Z,6.12
2019-05-13T12:54:56.196Z,2.60
2019-05-13T12:57:23.045Z,3.30
2019-05-13T12:59:44.792Z,3.60
2019-05-13T13:02:08.253Z,2.72
2019-05-13T13:04:33.628Z,3.00
2019-05-13T13:06:56.853Z,4.17
2019-05-13T13:09:22.514Z,4.30
2019-05-13T13:11:45.452Z,4.10
2019-05-13T13:14:14.073Z,4.92
2019-05-13T13:16:35.584Z,3.70
2019-05-13T13:19:02.217Z,3.70
2019-05-13T13:21:32.630Z,4.72
2019-05-13T13:23:49.635Z,4.12
2019-05-13T13:26:15.978Z,4.72
2019-05-13T13:28:38.205Z,4.47
2019-05-13T13:31:04.098Z,5.58
2019-05-13T13:33:26.820Z,5.47
2019-05-13T13:35:59.494Z,4.85
2019-05-13T13:38:15.468Z,3.45
2019-05-13T13:40:39.338Z,3.80
2019-05-13T13:43:05.466Z,4.08
2019-05-13T13:45:32.707Z,3.10
2019-05-13T13:48:03.292Z,6.65
2019-05-13T13:50:23.631Z,6.50
2019-05-13T13:52:45.648Z,5.65
2019-05-13T13:55:09.594Z,3.55
2019-05-13T13:57:39.358Z,5.05
2019-05-13T14:00:34.568Z,3.52
2019-05-13T14:02:36.570Z,3.47
2019-05-13T14:04:56.220Z,3.87
2019-05-13T14:07:31.326Z,4.05
2019-05-13T14:09:44.823Z,4.00
2019-05-13T14:12:08.285Z,7.17
2019-05-13T14:14:32.040Z,3.95
2019-05-13T14:16:55.573Z,4.37
2019-05-13T14:19:19.032Z,6.00
2019-05-13T14:21:42.468Z,5.78
2019-05-13T14:24:05.917Z,3.90
2019-05-13T14:26:29.339Z,4.55
2019-05-13T14:28:53.799Z,6.92
2019-05-13T14:31:17.757Z,6.30
2019-05-13T14:33:42.421Z,3.83
2019-05-13T14:36:06.246Z,3.87
2019-05-13T14:38:32.565Z,5.80
2019-05-13T14:40:55.450Z,4.97
2019-05-13T14:43:19.167Z,4.25
2019-05-13T14:45:43.105Z,6.75
2019-05-13T14:48:06.581Z,5.95
2019-05-13T14:50:31.916Z,2.52
2019-05-13T14:52:55.193Z,4.72
2019-05-13T14:55:18.612Z,4.40
2019-05-13T14:57:42.070Z,5.37
2019-05-13T15:00:08.477Z,7.50
2019-05-13T15:02:38.472Z,5.47
2019-05-13T15:05:11.908Z,3.35
2019-05-13T15:07:35.804Z,8.00
2019-05-13T15:10:02.152Z,4.47
2019-05-13T15:12:24.435Z,2.62
2019-05-13T15:14:47.888Z,3.45
2019-05-13T15:17:12.757Z,2.40
2019-05-13T15:19:36.639Z,2.98
2019-05-13T15:22:00.436Z,4.42
2019-05-13T15:24:23.888Z,5.83
2019-05-13T15:26:47.488Z,2.67
2019-05-13T15:29:11.573Z,3.58
2019-05-13T15:31:37.797Z,3.50
2019-05-13T15:34:12.672Z,6.00
2019-05-13T15:36:37.627Z,5.87
2019-05-13T15:39:05.108Z,2.58
2019-05-13T15:41:28.569Z,7.90
2019-05-13T15:43:52.302Z,6.97
2019-05-13T15:46:15.733Z,35.67
2019-05-13T15:48:39.192Z,4.03
2019-05-13T15:51:02.705Z,3.02
2019-05-13T15:53:26.121Z,6.60
2019-05-13T15:55:51.160Z,5.50
2019-05-13T15:58:14.810Z,2.72
2019-05-13T16:00:38.587Z,3.25
2019-05-13T16:03:02.015Z,4.10
2019-05-13T16:05:25.490Z,3.50
2019-05-13T16:07:48.912Z,2.27
2019-05-13T16:10:13.600Z,3.55
2019-05-13T16:12:37.055Z,3.40
2019-05-13T16:15:01.991Z,2.75
2019-05-13T16:17:38.735Z,2.58
2019-05-13T16:19:53.552Z,2.72
2019-05-13T16:22:16.479Z,4.20
2019-05-13T16:24:41.518Z,3.02
2019-05-13T16:27:05.421Z,5.15
2019-05-13T16:29:28.846Z,2.92
2019-05-13T16:31:52.406Z,3.83
2019-05-13T16:34:16.209Z,3.77
2019-05-13T16:36:42.200Z,3.30
2019-05-13T16:39:06.846Z,1.77
2019-05-13T16:41:31.608Z,3.83
2019-05-13T16:43:55.166Z,3.93
2019-05-13T16:46:18.594Z,3.80
2019-05-13T16:48:42.101Z,2.50
2019-05-13T16:51:05.533Z,6.63
2019-05-13T16:53:31.259Z,3.70
2019-05-13T16:55:54.157Z,12.53
2019-05-13T16:58:17.584Z,5.35
2019-05-13T17:00:42.490Z,3.12
2019-05-13T17:03:06.015Z,6.17
2019-05-13T17:05:29.477Z,4.90
2019-05-13T17:07:52.896Z,4.00
2019-05-13T17:10:16.683Z,2.87
2019-05-13T17:12:40.144Z,3.27
2019-05-13T17:15:11.827Z,2.55
2019-05-13T17:17:35.855Z,3.85
2019-05-13T17:19:59.270Z,6.10
2019-05-13T17:22:22.728Z,4.57
2019-05-13T17:24:46.150Z,4.10
2019-05-13T17:27:11.973Z,3.22
2019-05-13T17:29:34.808Z,2.98
2019-05-13T17:31:58.227Z,3.53
2019-05-13T17:34:21.673Z,3.20
2019-05-13T17:36:45.820Z,3.45
2019-05-13T17:39:09.328Z,4.50
2019-05-13T17:41:32.758Z,3.65
2019-05-13T17:43:56.222Z,3.58
2019-05-13T17:46:21.362Z,4.70
2019-05-13T17:48:44.834Z,2.90
2019-05-13T17:51:08.639Z,3.27
2019-05-13T17:53:32.670Z,2.20
2019-05-13T17:55:56.208Z,2.90
2019-05-13T17:58:21.974Z,4.40
2019-05-13T18:00:45.180Z,3.70
2019-05-13T18:03:08.593Z,2.97
2019-05-13T18:05:32.051Z,2.63
2019-05-13T18:07:55.466Z,3.60
2019-05-13T18:10:19.568Z,5.25
2019-05-13T18:12:43.629Z,3.00
2019-05-13T18:15:07.891Z,4.67
2019-05-13T18:17:31.343Z,4.27
2019-05-13T18:19:54.765Z,4.40
2019-05-13T18:22:18.179Z,4.63
2019-05-13T18:24:41.935Z,2.33
2019-05-13T18:27:05.467Z,4.40
2019-05-13T18:29:31.393Z,5.97
2019-05-13T18:31:54.349Z,3.20
2019-05-13T18:34:17.766Z,3.77
2019-05-13T18:36:42.678Z,3.40
2019-05-13T18:39:08.559Z,5.47
2019-05-13T18:41:32.033Z,2.90
2019-05-13T18:43:55.448Z,2.97
2019-05-13T18:46:18.918Z,4.30
2019-05-13T18:48:57.763Z,9.70
2019-05-13T18:51:07.530Z,8.97
2019-05-13T18:53:32.072Z,10.00
2019-05-13T18:55:55.807Z,9.73
2019-05-13T18:58:19.282Z,8.00
2019-05-13T19:00:42.732Z,5.23
2019-05-13T19:03:06.181Z,5.60
2019-05-13T19:05:31.588Z,3.40
2019-05-13T19:07:54.797Z,2.37
2019-05-13T19:10:18.259Z,2.83
2019-05-13T19:12:42.259Z,3.30
2019-05-13T19:15:08.072Z,3.30
2019-05-13T19:17:32.301Z,3.17
2019-05-13T19:19:55.914Z,1.93
2019-05-13T19:22:21.398Z,4.47
2019-05-13T19:24:44.599Z,2.13
2019-05-13T19:27:08.014Z,3.87
2019-05-13T19:29:31.909Z,2.63
2019-05-13T19:31:55.474Z,2.97
2019-05-13T19:34:21.434Z,3.00
2019-05-13T19:36:44.085Z,1.77
2019-05-13T19:39:07.870Z,1.97
2019-05-13T19:41:31.624Z,2.73
2019-05-13T19:43:55.037Z,2.30
2019-05-13T19:46:18.466Z,4.17
2019-05-13T19:48:41.932Z,2.37
2019-05-13T19:51:05.360Z,4.57
2019-05-13T19:53:28.818Z,4.53
2019-05-13T19:55:52.285Z,3.40
2019-05-13T19:58:15.702Z,4.73
2019-05-13T20:00:39.161Z,3.37
2019-05-13T20:03:02.610Z,5.33
2019-05-13T20:05:26.077Z,2.73
2019-05-13T20:07:49.499Z,2.30
2019-05-13T20:10:13.036Z,3.37
2019-05-13T20:12:36.458Z,3.37
2019-05-13T20:15:01.419Z,2.73
2019-05-13T20:17:25.080Z,3.07
2019-05-13T20:19:51.382Z,3.37
2019-05-13T20:22:13.642Z,4.63
2019-05-13T20:24:37.178Z,2.40
2019-05-13T20:27:01.492Z,3.60
2019-05-13T20:29:25.221Z,2.87
2019-05-13T20:31:49.124Z,2.77
2019-05-13T20:34:12.549Z,5.10
2019-05-13T20:36:36.021Z,4.67
2019-05-13T20:38:59.451Z,2.70
2019-05-13T20:41:22.875Z,2.23
2019-05-13T20:43:46.343Z,5.20
2019-05-13T20:46:11.308Z,2.87
2019-05-13T20:48:34.881Z,4.30
2019-05-13T20:50:58.343Z,3.62
2019-05-13T20:53:21.861Z,2.53
2019-05-13T20:55:45.280Z,3.57
2019-05-13T20:58:08.739Z,3.33
2019-05-13T21:00:32.160Z,3.97
2019-05-13T21:02:55.615Z,2.40
2019-05-13T21:05:21.408Z,2.37
2019-05-13T21:07:44.212Z,4.07
2019-05-13T21:10:08.669Z,3.30
2019-05-13T21:12:32.129Z,2.37
2019-05-13T21:14:55.552Z,4.13
2019-05-13T21:17:21.275Z,5.77
2019-05-13T21:19:44.185Z,3.43
2019-05-13T21:22:07.596Z,3.83
2019-05-13T21:24:31.912Z,4.20
2019-05-13T21:26:55.533Z,3.27
2019-05-13T21:29:21.510Z,2.40
2019-05-13T21:31:44.481Z,3.97
2019-05-13T21:34:07.901Z,3.80
2019-05-13T21:36:31.374Z,3.97
2019-05-13T21:38:55.105Z,4.50
2019-05-13T21:41:18.558Z,3.70
2019-05-13T21:43:42.333Z,6.00
2019-05-13T21:46:05.759Z,3.63
2019-05-13T21:48:29.202Z,3.37
2019-05-13T21:50:52.627Z,2.60
2019-05-13T21:53:16.066Z,4.23
2019-05-13T21:55:41.411Z,2.70
2019-05-13T21:58:04.698Z,3.03
2019-05-13T22:00:35.797Z,2.43
2019-05-13T22:02:59.248Z,3.83
2019-05-13T22:05:22.678Z,3.17
2019-05-13T22:07:46.124Z,2.47
2019-05-13T22:10:09.655Z,4.23
2019-05-13T22:12:33.410Z,4.00
2019-05-13T22:14:56.901Z,4.53
2019-05-13T22:17:20.359Z,4.50
2019-05-13T22:19:43.819Z,3.50
2019-05-13T22:22:07.231Z,3.20
2019-05-13T22:24:31.206Z,4.10
2019-05-13T22:26:54.772Z,2.80
2019-05-13T22:29:18.232Z,2.63
2019-05-13T22:31:42.744Z,3.43
2019-05-13T22:34:06.177Z,4.13
2019-05-13T22:36:31.648Z,2.40
2019-05-13T22:38:54.775Z,3.93
2019-05-13T22:41:18.229Z,3.53
2019-05-13T22:43:54.623Z,2.60
2019-05-13T22:46:06.820Z,4.17
2019-05-13T22:48:31.790Z,4.60
2019-05-13T22:50:55.466Z,4.93
2019-05-13T22:53:20.991Z,3.03
2019-05-13T22:55:44.062Z,4.00
2019-05-13T22:58:07.506Z,4.33
2019-05-13T23:00:31.729Z,2.30
2019-05-13T23:02:55.157Z,2.90
2019-05-13T23:05:18.580Z,2.40
2019-05-13T23:07:42.030Z,4.23
2019-05-13T23:10:07.153Z,4.30
2019-05-13T23:12:31.419Z,4.83
2019-05-13T23:14:54.984Z,5.33
2019-05-13T23:17:18.440Z,4.33
2019-05-13T23:19:41.893Z,4.87
2019-05-13T23:22:05.668Z,4.83
2019-05-13T23:24:30.996Z,4.37
2019-05-13T23:26:54.250Z,3.55
2019-05-13T23:29:17.709Z,5.50
2019-05-13T23:31:41.610Z,5.22
2019-05-13T23:34:05.024Z,3.77
2019-05-13T23:36:28.475Z,3.03
2019-05-13T23:38:51.890Z,3.60
2019-05-13T23:41:15.340Z,3.47
2019-05-13T23:43:38.781Z,4.83
2019-05-13T23:46:02.195Z,4.10
2019-05-13T23:48:25.660Z,4.53
2019-05-13T23:50:49.069Z,4.50
2019-05-13T23:53:12.517Z,3.20
2019-05-13T23:55:35.976Z,2.47
2019-05-13T23:58:01.547Z,2.67
